Tienen, Belgium
Current Conditions -  °F | °C
As of 1:25 PM on Saturday 20 Dec 2014 (Local Time) from EBBE Reporting Station
Overcast Overcast  
Wind Chill: 37°   Ceiling: 5000
Heat Index: 45°   Visibility: 6mi
Dew Point: 37°   Wind: 17mph
Humidity: 76%   Direction: 260°W
Pressure: 30.18"   Gusts: NA
Location:  50.81°N, 4.94°E
Report Text: EBBE 201225Z AUTO 26015KT 9999 FEW025/// SCT030/// OVC050/// 07/03 Q1022 BLU
Loading
Personal Weather Stations






























Interactive Weather Map New forecast layout! Learn more

10-Day Weather Forecast

Advertisements
Track Severe Weather on mobile